Time;durP1;ratioP1;P1;durP2;ratioP2;P2;SDS_P1;SDS_P2;PMS_P1;PMS_P2;Temp;Humidity;BMP_temperature;BMP_pressure;BME280_temperature;BME280_humidity;BME280_pressure;Samples;Min_cycle;Max_cycle;Signal;HPM_P1;HPM_P2
2024/01/17 00:01:40;;;;;;;26.27;12.80;;;5.10;99.90;;;;;;7423746;19;20018;-83
2024/01/17 00:04:09;;;;;;;28.40;13.25;;;5.10;99.90;;;;;;7436421;19;20007;-83
2024/01/17 00:06:39;;;;;;;29.73;12.63;;;5.10;99.90;;;;;;7453406;19;20003;-81
2024/01/17 00:12:23;;;;;;;33.67;13.38;;;5.10;99.90;;;;;;7441498;19;20002;-82
2024/01/17 00:15:03;;;;;;;22.75;12.38;;;5.10;99.90;;;;;;7402155;19;20010;-84
2024/01/17 00:17:39;;;;;;;31.92;13.70;;;5.10;99.90;;;;;;7423345;19;20003;-84
2024/01/17 00:20:09;;;;;;;28.77;13.13;;;5.10;99.90;;;;;;7423237;19;20014;-84
2024/01/17 00:22:49;;;;;;;26.98;13.30;;;5.10;99.90;;;;;;7419267;19;20026;-83
2024/01/17 00:25:28;;;;;;;26.55;12.05;;;5.10;99.90;;;;;;7419405;19;20015;-83
2024/01/17 00:28:02;;;;;;;34.25;13.93;;;5.10;99.90;;;;;;7420082;19;20086;-83
2024/01/17 00:30:38;;;;;;;31.67;14.52;;;5.10;99.90;;;;;;7437802;19;20362;-84
2024/01/17 00:33:11;;;;;;;34.20;13.43;;;5.10;99.90;;;;;;7418458;19;20007;-83
2024/01/17 00:35:46;;;;;;;33.78;13.43;;;5.00;99.90;;;;;;7417635;19;20018;-83
2024/01/17 00:42:03;;;;;;;35.25;13.82;;;5.10;99.90;;;;;;7368367;19;20074;-85
2024/01/17 01:05:34;;;;;;;;;;;;;;;;;;;;;
2024/01/17 02:41:16;;;;;;;;;;;;;;;;;;;;;
2024/01/17 02:44:26;;;;;;;;;;;;;;;;;;;;;
2024/01/17 02:47:24;;;;;;;33.50;15.32;;;5.00;99.90;;;;;;7386567;19;20401;-83
2024/01/17 02:49:56;;;;;;;36.28;15.95;;;5.10;99.90;;;;;;7384033;19;20006;-82
2024/01/17 02:53:29;;;;;;;;;;;;;;;;;;;;;
2024/01/17 02:59:35;;;;;;;;;;;;;;;;;;;;;
2024/01/17 03:21:52;;;;;;;;;;;5.10;99.90;;;;;;7439897;19;20002;-85
2024/01/17 03:24:23;;;;;;;36.35;15.48;;;5.10;99.90;;;;;;7416351;19;19934;-83
2024/01/17 03:26:57;;;;;;;39.42;16.38;;;5.10;99.90;;;;;;7422400;19;20113;-83
2024/01/17 03:29:45;;;;;;;30.27;14.77;;;5.10;99.90;;;;;;7418780;19;20002;-83
2024/01/17 03:32:24;;;;;;;34.40;16.42;;;5.10;99.90;;;;;;7420180;19;20005;-81
2024/01/17 03:35:12;;;;;;;37.55;17.20;;;5.10;99.90;;;;;;7417593;19;20014;-83
2024/01/17 03:37:42;;;;;;;37.97;17.70;;;5.20;99.90;;;;;;7416613;19;20062;-83
2024/01/17 03:40:25;;;;;;;;;;;;;;;;;;;;;
2024/01/17 03:42:57;;;;;;;33.72;15.52;;;5.20;99.90;;;;;;7442693;19;20002;-84
2024/01/17 03:45:30;;;;;;;43.05;17.20;;;5.20;99.90;;;;;;7420185;19;20017;-82
2024/01/17 03:48:02;;;;;;;44.40;16.80;;;5.20;99.90;;;;;;7418973;19;20062;-84
2024/01/17 03:50:34;;;;;;;33.28;16.20;;;5.20;99.90;;;;;;7420202;19;20079;-82
2024/01/17 03:53:05;;;;;;;35.55;15.82;;;5.20;99.90;;;;;;7420953;19;20014;-83
2024/01/17 03:55:35;;;;;;;;;;;5.20;99.90;;;;;;7420657;19;20003;-83
2024/01/17 03:58:07;;;;;;;32.85;14.50;;;5.20;99.90;;;;;;7418499;19;19974;-82
2024/01/17 04:01:17;;;;;;;37.80;15.05;;;5.20;99.90;;;;;;7440805;19;20022;-83
2024/01/17 04:04:33;;;;;;;31.48;14.25;;;5.20;99.90;;;;;;7422925;19;20006;-84
2024/01/17 04:07:14;;;;;;;44.65;15.25;;;5.20;99.90;;;;;;7316430;19;2004388;-84
2024/01/17 04:13:19;;;;;;;32.28;14.48;;;5.20;99.90;;;;;;7313835;19;2004474;-83
2024/01/17 04:15:49;;;;;;;32.10;14.05;;;5.20;99.90;;;;;;7418514;19;20046;-81
2024/01/17 04:21:56;;;;;;;29.58;14.75;;;5.20;99.90;;;;;;7392919;19;20018;-83
2024/01/17 04:24:25;;;;;;;155.70;18.17;;;5.20;99.90;;;;;;7388029;19;20037;-82
2024/01/17 04:27:00;;;;;;;32.75;15.13;;;5.20;99.90;;;;;;7390977;19;20002;-83
2024/01/17 04:29:29;;;;;;;24.13;14.07;;;5.20;99.90;;;;;;7391435;19;20006;-85
2024/01/17 04:31:59;;;;;;;27.08;14.02;;;5.20;99.90;;;;;;7390293;19;20014;-84
2024/01/17 04:34:28;;;;;;;28.67;13.48;;;5.20;99.90;;;;;;7389894;19;20007;-83
2024/01/17 04:37:19;;;;;;;32.95;15.50;;;5.20;99.90;;;;;;7419644;19;19999;-84
2024/01/17 04:40:00;;;;;;;189.48;20.25;;;5.20;99.90;;;;;;7404928;19;20010;-84
2024/01/17 05:21:31;;;;;;;35.95;16.58;;;5.20;99.90;;;;;;6389262;19;6926737;-84
2024/01/17 05:24:06;;;;;;;32.75;15.80;;;5.20;99.90;;;;;;7418748;19;20066;-84
2024/01/17 05:36:23;;;;;;;27.75;13.40;;;5.30;99.90;;;;;;7416879;19;20022;-82
2024/01/17 05:39:09;;;;;;;29.58;14.43;;;5.30;99.90;;;;;;7418205;19;20047;-83
2024/01/17 05:42:05;;;;;;;37.75;15.23;;;5.30;99.90;;;;;;7417843;19;20023;-83
2024/01/17 07:15:00;;;;;;;;;;;;;;;;;;;;;
2024/01/17 08:06:34;;;;;;;63.42;12.10;;;5.50;99.90;;;;;;7443864;19;19991;-84
2024/01/17 08:09:20;;;;;;;27.85;12.15;;;5.60;99.90;;;;;;7420220;19;19999;-81
2024/01/17 08:15:19;;;;;;;370.45;29.05;;;5.60;99.90;;;;;;7416187;19;20023;-80
2024/01/17 08:17:47;;;;;;;29.13;10.82;;;5.70;99.90;;;;;;7418871;19;20050;-79
2024/01/17 08:20:22;;;;;;;20.67;10.63;;;5.70;99.90;;;;;;7416997;19;20106;-81
2024/01/17 08:22:54;;;;;;;18.83;10.38;;;5.70;99.90;;;;;;7413829;19;20010;-81
2024/01/17 08:35:22;;;;;;;22.38;10.48;;;5.70;99.90;;;;;;7439914;19;20287;-82
2024/01/17 08:44:25;;;;;;;14.15;7.05;;;5.70;99.90;;;;;;7444406;19;19982;-80
2024/01/17 08:46:54;;;;;;;14.10;6.90;;;5.70;99.90;;;;;;7419443;19;20010;-76
2024/01/17 08:49:22;;;;;;;14.82;7.97;;;5.70;99.90;;;;;;7410520;19;20098;-77
2024/01/17 08:51:51;;;;;;;14.45;8.27;;;5.70;99.90;;;;;;7434605;19;20047;-77
2024/01/17 08:54:21;;;;;;;14.63;8.50;;;5.80;99.90;;;;;;7397770;19;20035;-77
2024/01/17 08:56:50;;;;;;;19.42;8.07;;;5.70;99.90;;;;;;7383156;19;20118;-77
2024/01/17 08:59:21;;;;;;;14.75;8.13;;;5.70;99.90;;;;;;7380713;19;20717;-77
2024/01/17 09:01:52;;;;;;;12.27;7.95;;;5.80;99.90;;;;;;7382268;19;20007;-77
2024/01/17 09:04:21;;;;;;;16.85;8.93;;;5.80;99.90;;;;;;7385569;19;20011;-77
2024/01/17 09:06:52;;;;;;;14.75;8.23;;;5.90;99.90;;;;;;7409107;19;20014;-77
2024/01/17 09:09:22;;;;;;;;;;;5.90;99.90;;;;;;7393604;19;20046;-76
2024/01/17 09:11:48;;;;;;;13.35;7.18;;;6.00;99.90;;;;;;7387531;19;19931;-77
2024/01/17 09:14:41;;;;;;;27.02;13.77;;;5.90;99.90;;;;;;7415760;19;20025;-81
2024/01/17 09:19:59;;;;;;;15.40;8.63;;;6.00;99.90;;;;;;7390481;19;20067;-80
2024/01/17 09:34:40;;;;;;;18.35;8.18;;;6.10;99.90;;;;;;7282884;19;20019;-77
2024/01/17 09:37:10;;;;;;;19.50;7.85;;;6.10;99.90;;;;;;7405780;19;20011;-77
2024/01/17 09:39:40;;;;;;;14.50;8.90;;;6.10;99.90;;;;;;7405996;19;20037;-78
2024/01/17 09:42:09;;;;;;;15.23;8.35;;;6.10;99.90;;;;;;7381445;19;20010;-77
2024/01/17 09:44:38;;;;;;;18.75;10.20;;;6.10;99.90;;;;;;7385200;19;20006;-79
2024/01/17 09:47:09;;;;;;;21.58;11.27;;;6.10;99.90;;;;;;7387007;19;20003;-80
2024/01/17 09:49:40;;;;;;;19.30;11.02;;;6.20;99.90;;;;;;7388726;19;20003;-78
2024/01/17 09:55:08;;;;;;;19.95;11.45;;;6.30;99.90;;;;;;7383511;19;19935;-80
2024/01/17 09:58:05;;;;;;;23.98;11.43;;;6.30;99.90;;;;;;7412965;19;20011;-83
2024/01/17 10:00:38;;;;;;;17.42;10.52;;;6.30;99.90;;;;;;7387258;19;20002;-85
2024/01/17 10:03:07;;;;;;;26.02;11.13;;;6.30;99.90;;;;;;7389163;19;20023;-82
2024/01/17 10:06:03;;;;;;;28.52;11.00;;;6.30;99.90;;;;;;7388932;19;20007;-84
2024/01/17 10:08:35;;;;;;;42.95;13.32;;;6.20;99.90;;;;;;7387316;19;20308;-80
2024/01/17 10:11:06;;;;;;;25.48;12.98;;;6.30;99.90;;;;;;7387358;19;20040;-80
2024/01/17 10:13:38;;;;;;;23.77;11.40;;;6.20;99.90;;;;;;7387553;19;20082;-81
2024/01/17 10:16:08;;;;;;;22.30;10.93;;;6.20;99.90;;;;;;7407039;19;20062;-80
2024/01/17 10:18:38;;;;;;;20.45;10.25;;;6.20;99.90;;;;;;7386533;19;20755;-79
2024/01/17 10:21:11;;;;;;;23.75;10.93;;;6.20;99.90;;;;;;7387340;19;20397;-81
2024/01/17 10:23:51;;;;;;;21.27;10.20;;;6.20;99.90;;;;;;7389181;19;20014;-81
2024/01/17 10:26:24;;;;;;;21.67;10.45;;;6.20;99.90;;;;;;7389494;19;20011;-79
2024/01/17 10:28:53;;;;;;;21.63;10.63;;;6.20;99.90;;;;;;7389515;19;20011;-79
2024/01/17 10:31:23;;;;;;;24.50;11.80;;;6.30;99.90;;;;;;7411112;19;20029;-79
2024/01/17 10:33:53;;;;;;;25.70;11.15;;;6.30;99.90;;;;;;7389660;19;20011;-79
2024/01/17 10:36:26;;;;;;;17.63;10.25;;;6.30;99.90;;;;;;7387091;19;20003;-78
2024/01/17 10:39:05;;;;;;;17.08;9.80;;;6.30;99.90;;;;;;7385779;19;20006;-79
2024/01/17 10:41:36;;;;;;;18.75;11.00;;;6.30;99.90;;;;;;7386517;19;20007;-79
2024/01/17 10:44:05;;;;;;;25.40;12.27;;;6.40;99.90;;;;;;7389048;19;20389;-80
2024/01/17 10:47:09;;;;;;;28.95;14.40;;;6.30;99.90;;;;;;7389231;19;20007;-83
2024/01/17 10:49:43;;;;;;;205.85;24.98;;;6.30;99.90;;;;;;7385242;19;20006;-80
2024/01/17 10:52:21;;;;;;;33.35;15.43;;;6.40;99.90;;;;;;7410028;19;20033;-83
2024/01/17 10:54:53;;;;;;;41.60;17.63;;;6.40;99.90;;;;;;7384409;19;20390;-80
2024/01/17 10:57:23;;;;;;;31.95;14.93;;;6.40;99.90;;;;;;7387658;19;20010;-81
2024/01/17 10:59:54;;;;;;;30.13;15.20;;;6.50;99.90;;;;;;7387278;19;20013;-79
2024/01/17 11:02:25;;;;;;;26.73;13.68;;;6.50;99.90;;;;;;7386450;19;20006;-80
2024/01/17 11:05:00;;;;;;;38.30;16.05;;;6.60;99.90;;;;;;7389396;19;20039;-80
2024/01/17 11:07:34;;;;;;;30.38;15.27;;;6.50;99.90;;;;;;7389427;19;20006;-79
2024/01/17 11:10:05;;;;;;;39.38;16.52;;;6.60;99.90;;;;;;7408570;19;20365;-80
2024/01/17 11:12:35;;;;;;;44.25;13.77;;;6.60;99.90;;;;;;7391876;19;20286;-78
2024/01/17 11:15:08;;;;;;;36.53;17.15;;;6.60;99.90;;;;;;7391219;19;20015;-80
2024/01/17 11:17:39;;;;;;;50.78;17.63;;;6.60;99.90;;;;;;7390281;19;20010;-80
2024/01/17 11:20:10;;;;;;;64.00;26.88;;;6.70;99.90;;;;;;7386508;19;20050;-81
2024/01/17 11:22:44;;;;;;;54.97;23.80;;;6.70;99.90;;;;;;7386915;19;20061;-81
2024/01/17 11:25:20;;;;;;;48.88;21.17;;;6.70;99.90;;;;;;7405726;19;20027;-81
2024/01/17 11:27:56;;;;;;;36.97;16.42;;;6.70;99.90;;;;;;7387266;19;20023;-84
2024/01/17 11:30:39;;;;;;;36.58;18.73;;;6.80;99.90;;;;;;7402801;19;19999;-78
2024/01/17 11:33:26;;;;;;;51.65;17.88;;;6.80;99.90;;;;;;7403977;19;20015;-80
2024/01/17 11:36:35;;;;;;;55.33;18.67;;;6.70;99.90;;;;;;7379127;19;20007;-82
2024/01/17 11:39:08;;;;;;;40.50;17.95;;;6.80;99.90;;;;;;7292786;19;2004351;-80
2024/01/17 11:42:22;;;;;;;46.47;16.70;;;6.80;99.90;;;;;;7382666;19;20026;-80
2024/01/17 11:45:20;;;;;;;41.20;17.50;;;6.80;99.90;;;;;;7382993;19;19999;-79
2024/01/17 11:48:02;;;;;;;44.78;18.88;;;6.90;99.90;;;;;;7401844;19;20010;-80
2024/01/17 11:50:45;;;;;;;;;;;;;;;;;;;;;
2024/01/17 11:53:38;;;;;;;57.00;18.98;;;6.90;99.90;;;;;;7384344;19;20006;-81
2024/01/17 11:57:13;;;;;;;;;;;;;;;;;;;;;
2024/01/17 12:00:11;;;;;;;47.15;18.00;;;7.10;99.90;;;;;;7408400;19;20040;-80
2024/01/17 12:02:59;;;;;;;40.25;18.17;;;7.10;99.90;;;;;;7382262;19;20015;-81
2024/01/17 12:05:53;;;;;;;45.42;19.95;;;7.10;99.90;;;;;;7379445;19;20036;-81
2024/01/17 12:14:48;;;;;;;;;;;;;;;;;;;;;
2024/01/17 12:31:07;;;;;;;61.75;22.42;;;7.30;99.90;;;;;;7422280;19;20806;-81
2024/01/17 12:34:10;;;;;;;;;;;;;;;;;;;;;
2024/01/17 12:54:32;;;;;;;;;;;;;;;;;;;;;
2024/01/17 12:57:41;;;;;;;;;;;;;;;;;;;;;
2024/01/17 13:03:57;;;;;;;25.08;5.78;;;7.90;99.90;;;;;;7419800;19;20036;-82
2024/01/17 13:23:19;;;;;;;37.88;5.07;;;8.60;99.90;;;;;;6640683;19;6197405;-81
2024/01/17 13:29:51;;;;;;;;;;;;;;;;;;;;;
2024/01/17 13:32:58;;;;;;;;;;;;;;;;;;;;;
2024/01/17 13:35:54;;;;;;;;;;;;;;;;;;;;;
2024/01/17 13:39:05;;;;;;;28.88;14.57;;;10.00;99.90;;;;;;7422801;19;20394;-82
2024/01/17 15:05:42;;;;;;;7.57;5.30;;;7.30;99.90;;;;;;7420454;19;20010;-81
2024/01/17 15:08:46;;;;;;;;;;;;;;;;;;;;;
2024/01/17 15:18:43;;;;;;;;;;;;;;;;;;;;;
2024/01/17 16:32:27;;;;;;;6.43;3.70;;;6.80;99.90;;;;;;7393444;19;20070;-78
2024/01/17 16:35:07;;;;;;;10.32;4.28;;;6.80;99.90;;;;;;7386998;19;20094;-77
2024/01/17 16:37:46;;;;;;;5.47;3.67;;;6.80;99.90;;;;;;7413792;19;20006;-80
2024/01/17 16:40:15;;;;;;;5.25;3.72;;;6.90;99.90;;;;;;7393176;19;20011;-76
2024/01/17 16:45:53;;;;;;;14.57;4.40;;;6.90;99.90;;;;;;7358383;19;20019;-81
2024/01/17 17:07:27;;;;;;;;;;;;;;;;;;;;;
2024/01/17 17:13:52;;;;;;;14.48;4.60;;;7.00;99.90;;;;;;7389284;19;20167;-85
2024/01/17 17:16:30;;;;;;;6.45;4.28;;;6.90;99.90;;;;;;7383221;19;20015;-77
2024/01/17 17:19:00;;;;;;;8.55;5.45;;;6.90;99.90;;;;;;7382894;19;20507;-77
2024/01/17 17:21:44;;;;;;;7.88;5.30;;;7.00;99.90;;;;;;7384810;19;20019;-78
2024/01/17 17:24:41;;;;;;;;;;;;;;;;;;;;;
2024/01/17 18:07:32;;;;;;;19.45;10.05;;;6.80;99.90;;;;;;7419047;19;20222;-85
2024/01/17 18:10:50;;;;;;;27.50;12.20;;;6.80;99.90;;;;;;7419929;19;20010;-83
2024/01/17 19:05:52;;;;;;;20.77;11.77;;;6.80;99.90;;;;;;4933313;19;7186916;-81
2024/01/17 19:08:26;;;;;;;149.23;20.02;;;6.80;99.90;;;;;;7424271;19;20356;-81
2024/01/17 19:40:44;;;;;;;50.25;15.25;;;6.50;99.90;;;;;;7421917;19;20359;-77
2024/01/17 19:43:27;;;;;;;30.70;14.48;;;6.30;99.90;;;;;;7423224;19;20006;-79
2024/01/17 19:46:18;;;;;;;27.45;13.68;;;6.40;99.90;;;;;;7424675;19;20067;-80
2024/01/17 19:49:41;;;;;;;;;;;;;;;;;;;;;
2024/01/17 19:52:29;;;;;;;;;;;;;;;;;;;;;
2024/01/17 19:55:05;;;;;;;29.40;15.63;;;6.20;99.90;;;;;;7422959;19;20031;-82
2024/01/17 19:57:51;;;;;;;;;;;;;;;;;;;;;
2024/01/17 20:00:56;;;;;;;34.97;18.75;;;6.20;99.90;;;;;;7420917;19;20074;-78
2024/01/17 20:03:44;;;;;;;27.00;15.68;;;6.30;99.90;;;;;;7419181;19;20073;-80
2024/01/17 20:06:13;;;;;;;26.20;14.30;;;6.30;99.90;;;;;;7422113;19;20012;-79
2024/01/17 20:08:43;;;;;;;27.35;15.43;;;6.40;99.90;;;;;;7422433;19;20020;-80
2024/01/17 20:11:24;;;;;;;;;;;;;;;;;;;;;
2024/01/17 20:13:55;;;;;;;;;;;6.50;99.90;;;;;;7445571;19;20017;-78
2024/01/17 20:16:48;;;;;;;;;;;;;;;;;;;;;
2024/01/17 20:19:22;;;;;;;23.33;13.55;;;6.50;99.90;;;;;;7423398;19;20050;-79
2024/01/17 20:22:05;;;;;;;;;;;;;;;;;;;;;
2024/01/17 20:24:34;;;;;;;33.28;16.05;;;6.50;99.90;;;;;;7425795;19;20010;-81
2024/01/17 20:27:04;;;;;;;25.77;14.50;;;6.50;99.90;;;;;;7424608;19;20024;-80
2024/01/17 20:29:40;;;;;;;25.02;15.02;;;6.60;99.90;;;;;;7423164;19;20027;-81
2024/01/17 20:32:12;;;;;;;24.23;13.30;;;6.40;99.90;;;;;;7443894;19;20027;-78
2024/01/17 20:35:12;;;;;;;;;;;;;;;;;;;;;
2024/01/17 20:37:46;;;;;;;24.05;12.25;;;6.40;99.90;;;;;;7420820;19;20620;-80
2024/01/17 20:40:15;;;;;;;25.15;12.65;;;6.40;99.90;;;;;;7405941;19;20003;-80
2024/01/17 20:43:09;;;;;;;23.30;12.85;;;6.30;99.90;;;;;;7401158;19;20006;-78
2024/01/17 20:45:40;;;;;;;24.80;13.60;;;6.40;99.90;;;;;;7409306;19;20019;-78
2024/01/17 20:48:19;;;;;;;;;;;;;;;;;;;;;
2024/01/17 20:50:55;;;;;;;23.00;12.68;;;6.40;99.90;;;;;;7410504;19;20027;-78
2024/01/17 20:53:39;;;;;;;29.05;12.55;;;6.30;99.90;;;;;;7410633;19;20020;-78
2024/01/17 20:56:16;;;;;;;22.08;12.45;;;6.20;99.90;;;;;;7417696;19;20030;-79
2024/01/17 20:58:54;;;;;;;;;;;;;;;;;;;;;
2024/01/17 21:01:32;;;;;;;25.13;13.15;;;6.30;99.90;;;;;;7393896;19;20070;-79
2024/01/17 21:04:27;;;;;;;26.90;12.82;;;6.40;99.90;;;;;;7392742;19;20247;-79
2024/01/17 21:06:56;;;;;;;24.45;12.73;;;6.40;99.90;;;;;;7392525;19;20018;-79
2024/01/17 21:09:32;;;;;;;23.98;13.15;;;6.40;99.90;;;;;;7393399;19;20031;-78
2024/01/17 21:12:01;;;;;;;24.42;13.02;;;6.50;99.90;;;;;;7394372;19;20007;-80
2024/01/17 21:14:36;;;;;;;28.15;13.15;;;6.50;99.90;;;;;;7393899;19;20007;-79
2024/01/17 21:17:07;;;;;;;26.35;14.50;;;6.50;99.90;;;;;;7415498;19;20003;-79
2024/01/17 21:19:52;;;;;;;;;;;;;;;;;;;;;
2024/01/17 21:22:23;;;;;;;28.20;12.38;;;6.40;99.90;;;;;;7394314;19;20002;-79
2024/01/17 21:24:53;;;;;;;23.67;13.10;;;6.30;99.90;;;;;;7396292;19;20050;-80
2024/01/17 21:27:29;;;;;;;25.67;14.43;;;6.40;99.90;;;;;;7395877;19;20006;-80
2024/01/17 21:29:58;;;;;;;25.25;14.00;;;6.40;99.90;;;;;;7390389;19;20019;-79
2024/01/17 21:32:29;;;;;;;27.85;14.55;;;6.40;99.90;;;;;;7387349;19;20023;-78
2024/01/17 21:34:57;;;;;;;136.50;18.70;;;6.40;99.90;;;;;;7407925;19;20086;-77
2024/01/17 21:37:26;;;;;;;23.67;11.95;;;6.50;99.90;;;;;;7382469;19;20011;-77
2024/01/17 21:39:55;;;;;;;19.88;10.85;;;6.40;99.90;;;;;;7380756;19;20341;-77
2024/01/17 21:42:24;;;;;;;20.92;12.35;;;6.50;99.90;;;;;;7381777;19;20377;-76
2024/01/17 21:44:52;;;;;;;22.83;11.90;;;6.50;99.90;;;;;;7380690;19;20003;-77
2024/01/17 21:47:21;;;;;;;30.20;12.95;;;6.50;99.90;;;;;;7382036;19;20011;-78
2024/01/17 21:49:52;;;;;;;19.08;11.50;;;6.50;99.90;;;;;;7401842;19;20414;-78
2024/01/17 21:52:21;;;;;;;21.95;11.55;;;6.50;99.90;;;;;;7378641;19;20009;-77
2024/01/17 21:54:50;;;;;;;21.77;10.82;;;6.40;99.90;;;;;;7381906;19;20500;-77
2024/01/17 21:57:18;;;;;;;23.15;11.95;;;6.40;99.90;;;;;;7380521;19;20102;-77
2024/01/17 21:59:47;;;;;;;25.15;12.55;;;6.40;99.90;;;;;;7382225;19;20070;-77
2024/01/17 22:02:16;;;;;;;19.40;11.48;;;6.40;99.90;;;;;;7403983;19;20098;-77
2024/01/17 22:04:44;;;;;;;23.20;11.95;;;6.40;99.90;;;;;;7382211;19;20020;-78
2024/01/17 22:07:16;;;;;;;648.75;38.72;;;6.50;99.90;;;;;;7383959;19;20003;-76
2024/01/17 22:09:45;;;;;;;43.85;14.48;;;6.50;99.90;;;;;;7383295;19;20010;-77
2024/01/17 22:12:13;;;;;;;25.55;14.05;;;6.60;99.90;;;;;;7382633;19;20059;-78
2024/01/17 22:14:44;;;;;;;27.05;14.32;;;6.60;99.90;;;;;;7380980;19;20338;-77
2024/01/17 22:17:13;;;;;;;37.13;14.15;;;6.60;99.90;;;;;;7402693;19;20008;-77
2024/01/17 22:19:42;;;;;;;29.02;14.38;;;6.60;99.90;;;;;;7380452;19;20034;-77
2024/01/17 22:22:11;;;;;;;28.88;14.57;;;6.60;99.90;;;;;;7380297;19;20024;-76
2024/01/17 22:24:42;;;;;;;29.75;14.70;;;6.60;99.90;;;;;;7380964;19;19999;-77
2024/01/17 22:27:11;;;;;;;125.22;18.17;;;6.60;99.90;;;;;;7381097;19;20036;-76
2024/01/17 22:29:39;;;;;;;25.90;14.07;;;6.60;99.90;;;;;;7379570;19;20028;-77
2024/01/17 22:32:08;;;;;;;34.15;15.27;;;6.70;99.90;;;;;;7401835;19;20054;-77
2024/01/17 22:34:38;;;;;;;25.92;14.30;;;6.60;99.90;;;;;;7382866;19;20055;-78
2024/01/17 22:37:08;;;;;;;175.02;20.73;;;6.60;99.90;;;;;;7380857;19;20011;-77
2024/01/17 22:39:37;;;;;;;34.50;14.20;;;6.60;99.90;;;;;;7380283;19;20082;-78
2024/01/17 22:42:08;;;;;;;24.40;14.40;;;6.60;99.90;;;;;;7381918;19;20016;-77
2024/01/17 22:44:37;;;;;;;27.17;13.90;;;6.60;99.90;;;;;;7381276;19;20020;-77
2024/01/17 22:47:07;;;;;;;28.42;15.40;;;6.50;99.90;;;;;;7402320;19;20024;-78
2024/01/17 22:49:35;;;;;;;28.85;15.43;;;6.50;99.90;;;;;;7378590;19;20003;-77
2024/01/17 22:52:06;;;;;;;29.05;14.73;;;6.60;99.90;;;;;;7379669;19;20050;-77
2024/01/17 22:54:37;;;;;;;25.83;14.52;;;6.60;99.90;;;;;;7380758;19;20013;-77
2024/01/17 22:57:08;;;;;;;24.23;13.80;;;6.70;99.90;;;;;;7384543;19;20018;-76
2024/01/17 22:59:36;;;;;;;;;;;6.60;99.90;;;;;;7393901;19;20449;-76
2024/01/17 23:02:05;;;;;;;22.85;12.85;;;6.60;99.90;;;;;;7414591;19;19934;-76
2024/01/17 23:04:34;;;;;;;24.50;13.73;;;6.60;99.90;;;;;;7394381;19;20034;-75
2024/01/17 23:07:04;;;;;;;25.67;15.30;;;6.60;99.90;;;;;;7393543;19;20006;-75
2024/01/17 23:09:33;;;;;;;27.13;13.60;;;6.60;99.90;;;;;;7385467;19;20013;-76
2024/01/17 23:12:02;;;;;;;19.83;12.55;;;6.60;99.90;;;;;;7378553;19;20650;-77
2024/01/17 23:14:33;;;;;;;24.67;14.35;;;6.60;99.90;;;;;;7378219;19;20024;-77
2024/01/17 23:17:02;;;;;;;29.13;15.07;;;6.60;99.90;;;;;;7402092;19;20078;-77
2024/01/17 23:19:31;;;;;;;31.15;14.15;;;6.50;99.90;;;;;;7378809;19;20023;-77
2024/01/17 23:22:00;;;;;;;24.75;14.18;;;6.50;99.90;;;;;;7378273;19;20023;-76
2024/01/17 23:24:28;;;;;;;24.77;12.95;;;6.60;99.90;;;;;;7377975;19;20011;-77
2024/01/17 23:26:57;;;;;;;24.40;13.70;;;6.40;99.90;;;;;;7378761;19;20031;-76
2024/01/17 23:29:26;;;;;;;25.13;13.45;;;6.50;99.90;;;;;;7376502;19;20010;-76
2024/01/17 23:31:57;;;;;;;28.85;13.77;;;6.50;99.90;;;;;;7398876;19;20010;-76
2024/01/17 23:34:26;;;;;;;26.48;12.95;;;6.50;99.90;;;;;;7377791;19;20006;-76
2024/01/17 23:36:54;;;;;;;21.50;12.45;;;6.50;99.90;;;;;;7378260;19;20023;-77
2024/01/17 23:39:20;;;;;;;19.85;10.98;;;6.50;99.90;;;;;;7377220;19;20448;-77
2024/01/17 23:41:51;;;;;;;21.45;12.38;;;6.40;99.90;;;;;;7377961;19;20010;-77
2024/01/17 23:44:19;;;;;;;30.63;12.80;;;6.40;99.90;;;;;;7392969;19;20710;-77
2024/01/17 23:46:48;;;;;;;33.55;12.32;;;6.30;99.90;;;;;;7398937;19;20074;-76
2024/01/17 23:49:19;;;;;;;23.63;12.35;;;6.30;99.90;;;;;;7376865;19;20062;-76
2024/01/17 23:51:48;;;;;;;20.90;11.68;;;6.20;99.90;;;;;;7376857;19;20006;-76
2024/01/17 23:54:17;;;;;;;26.30;11.52;;;6.20;99.90;;;;;;7376634;19;20003;-77
2024/01/17 23:56:47;;;;;;;22.38;11.82;;;6.30;99.90;;;;;;7377840;19;20003;-76
2024/01/17 23:59:15;;;;;;;20.05;10.25;;;6.20;99.90;;;;;;7399884;19;20007;-77
